sensor_id;sensor_type;location;lat;lon;timestamp;temperature;humidity
27671;DHT22;15077;49.704;9.908;2022-11-04T00:01:30;14.90;68.70
27671;DHT22;15077;49.704;9.908;2022-11-04T00:03:56;14.90;67.90
27671;DHT22;15077;49.704;9.908;2022-11-04T00:06:22;14.90;68.20
27671;DHT22;15077;49.704;9.908;2022-11-04T00:08:53;14.90;67.70
27671;DHT22;15077;49.704;9.908;2022-11-04T00:11:20;15.00;68.20
27671;DHT22;15077;49.704;9.908;2022-11-04T00:14:09;14.90;67.90
27671;DHT22;15077;49.704;9.908;2022-11-04T00:16:35;14.90;67.90
27671;DHT22;15077;49.704;9.908;2022-11-04T00:19:19;14.90;67.90
27671;DHT22;15077;49.704;9.908;2022-11-04T00:21:46;14.90;67.90
27671;DHT22;15077;49.704;9.908;2022-11-04T00:24:31;14.90;67.90
27671;DHT22;15077;49.704;9.908;2022-11-04T00:27:16;14.90;67.90
27671;DHT22;15077;49.704;9.908;2022-11-04T00:30:03;14.90;68.10
27671;DHT22;15077;49.704;9.908;2022-11-04T00:32:32;14.90;68.10
27671;DHT22;15077;49.704;9.908;2022-11-04T00:35:17;14.90;67.90
27671;DHT22;15077;49.704;9.908;2022-11-04T00:37:43;14.80;67.80
27671;DHT22;15077;49.704;9.908;2022-11-04T00:40:11;14.80;67.70
27671;DHT22;15077;49.704;9.908;2022-11-04T00:42:39;14.80;67.80
27671;DHT22;15077;49.704;9.908;2022-11-04T00:45:08;14.80;67.80
27671;DHT22;15077;49.704;9.908;2022-11-04T00:47:34;14.80;67.90
27671;DHT22;15077;49.704;9.908;2022-11-04T00:49:59;14.80;67.90
27671;DHT22;15077;49.704;9.908;2022-11-04T00:52:25;14.80;67.60
27671;DHT22;15077;49.704;9.908;2022-11-04T00:54:51;14.90;67.80
27671;DHT22;15077;49.704;9.908;2022-11-04T00:57:17;14.80;67.60
27671;DHT22;15077;49.704;9.908;2022-11-04T00:59:42;14.80;67.60
27671;DHT22;15077;49.704;9.908;2022-11-04T01:02:10;14.80;67.50
27671;DHT22;15077;49.704;9.908;2022-11-04T01:04:38;14.80;67.50
27671;DHT22;15077;49.704;9.908;2022-11-04T01:07:05;14.80;67.30
27671;DHT22;15077;49.704;9.908;2022-11-04T01:09:32;14.80;67.60
27671;DHT22;15077;49.704;9.908;2022-11-04T01:11:58;14.80;67.40
27671;DHT22;15077;49.704;9.908;2022-11-04T01:14:25;14.80;67.40
27671;DHT22;15077;49.704;9.908;2022-11-04T01:16:51;14.90;67.50
27671;DHT22;15077;49.704;9.908;2022-11-04T01:19:17;14.90;67.40
27671;DHT22;15077;49.704;9.908;2022-11-04T01:21:42;14.90;67.50
27671;DHT22;15077;49.704;9.908;2022-11-04T01:24:08;14.80;67.50
27671;DHT22;15077;49.704;9.908;2022-11-04T01:26:34;14.90;67.50
27671;DHT22;15077;49.704;9.908;2022-11-04T01:29:00;14.90;67.40
27671;DHT22;15077;49.704;9.908;2022-11-04T01:31:27;14.90;67.30
27671;DHT22;15077;49.704;9.908;2022-11-04T01:33:54;14.90;67.10
27671;DHT22;15077;49.704;9.908;2022-11-04T01:36:20;14.90;67.20
27671;DHT22;15077;49.704;9.908;2022-11-04T01:38:46;14.90;67.30
27671;DHT22;15077;49.704;9.908;2022-11-04T01:41:16;14.90;67.30
27671;DHT22;15077;49.704;9.908;2022-11-04T01:43:54;14.90;67.10
27671;DHT22;15077;49.704;9.908;2022-11-04T01:46:24;14.90;67.10
27671;DHT22;15077;49.704;9.908;2022-11-04T01:49:03;14.80;67.00
27671;DHT22;15077;49.704;9.908;2022-11-04T01:51:39;14.80;67.00
27671;DHT22;15077;49.704;9.908;2022-11-04T01:54:07;14.80;66.90
27671;DHT22;15077;49.704;9.908;2022-11-04T01:56:35;14.80;67.00
27671;DHT22;15077;49.704;9.908;2022-11-04T01:59:04;14.80;67.00
27671;DHT22;15077;49.704;9.908;2022-11-04T02:01:33;14.80;66.90
27671;DHT22;15077;49.704;9.908;2022-11-04T02:03:59;14.80;67.00
27671;DHT22;15077;49.704;9.908;2022-11-04T02:06:45;14.80;66.90
27671;DHT22;15077;49.704;9.908;2022-11-04T02:09:12;14.80;67.00
27671;DHT22;15077;49.704;9.908;2022-11-04T02:11:39;14.80;67.20
27671;DHT22;15077;49.704;9.908;2022-11-04T02:14:23;14.80;67.10
27671;DHT22;15077;49.704;9.908;2022-11-04T02:16:49;14.80;67.00
27671;DHT22;15077;49.704;9.908;2022-11-04T02:24:33;14.70;67.30
27671;DHT22;15077;49.704;9.908;2022-11-04T02:27:09;14.70;67.20
27671;DHT22;15077;49.704;9.908;2022-11-04T02:38:35;14.60;66.90
27671;DHT22;15077;49.704;9.908;2022-11-04T02:49:13;14.60;67.10
27671;DHT22;15077;49.704;9.908;2022-11-04T02:52:01;14.60;67.10
27671;DHT22;15077;49.704;9.908;2022-11-04T02:54:41;14.60;67.10
27671;DHT22;15077;49.704;9.908;2022-11-04T02:57:12;14.60;67.00
27671;DHT22;15077;49.704;9.908;2022-11-04T02:59:45;14.60;66.90
27671;DHT22;15077;49.704;9.908;2022-11-04T03:02:17;14.60;66.90
27671;DHT22;15077;49.704;9.908;2022-11-04T03:04:49;14.60;66.90
27671;DHT22;15077;49.704;9.908;2022-11-04T03:07:17;14.60;67.00
27671;DHT22;15077;49.704;9.908;2022-11-04T03:09:49;14.60;67.30
27671;DHT22;15077;49.704;9.908;2022-11-04T03:12:18;14.60;67.10
27671;DHT22;15077;49.704;9.908;2022-11-04T03:14:48;14.50;66.90
27671;DHT22;15077;49.704;9.908;2022-11-04T03:17:22;14.60;67.10
27671;DHT22;15077;49.704;9.908;2022-11-04T03:19:56;14.50;66.90
27671;DHT22;15077;49.704;9.908;2022-11-04T03:22:24;14.50;66.90
27671;DHT22;15077;49.704;9.908;2022-11-04T03:24:53;14.50;66.90
27671;DHT22;15077;49.704;9.908;2022-11-04T03:30:13;14.50;66.80
27671;DHT22;15077;49.704;9.908;2022-11-04T03:32:47;14.50;66.90
27671;DHT22;15077;49.704;9.908;2022-11-04T03:35:23;14.50;66.90
27671;DHT22;15077;49.704;9.908;2022-11-04T03:37:50;14.50;66.80
27671;DHT22;15077;49.704;9.908;2022-11-04T03:40:16;14.50;66.80
27671;DHT22;15077;49.704;9.908;2022-11-04T03:42:49;14.50;67.00
27671;DHT22;15077;49.704;9.908;2022-11-04T03:45:21;14.50;66.80
27671;DHT22;15077;49.704;9.908;2022-11-04T03:47:48;14.50;66.80
27671;DHT22;15077;49.704;9.908;2022-11-04T03:52:52;14.50;66.80
27671;DHT22;15077;49.704;9.908;2022-11-04T03:55:17;14.50;66.90
27671;DHT22;15077;49.704;9.908;2022-11-04T03:57:54;14.50;67.00
27671;DHT22;15077;49.704;9.908;2022-11-04T04:00:24;14.50;67.00
27671;DHT22;15077;49.704;9.908;2022-11-04T04:08:30;14.50;66.80
27671;DHT22;15077;49.704;9.908;2022-11-04T04:14:05;14.40;66.80
27671;DHT22;15077;49.704;9.908;2022-11-04T04:16:38;14.40;66.80
27671;DHT22;15077;49.704;9.908;2022-11-04T04:19:18;14.40;66.80
27671;DHT22;15077;49.704;9.908;2022-11-04T04:21:57;14.40;67.00
27671;DHT22;15077;49.704;9.908;2022-11-04T04:24:28;14.40;66.80
27671;DHT22;15077;49.704;9.908;2022-11-04T04:27:18;14.40;66.80
27671;DHT22;15077;49.704;9.908;2022-11-04T04:29:58;14.40;66.90
27671;DHT22;15077;49.704;9.908;2022-11-04T04:32:34;14.30;66.80
27671;DHT22;15077;49.704;9.908;2022-11-04T04:35:04;14.30;66.70
27671;DHT22;15077;49.704;9.908;2022-11-04T04:37:50;14.30;66.80
27671;DHT22;15077;49.704;9.908;2022-11-04T04:40:18;14.30;66.90
27671;DHT22;15077;49.704;9.908;2022-11-04T04:43:09;14.30;67.00
27671;DHT22;15077;49.704;9.908;2022-11-04T04:45:58;14.30;67.30
27671;DHT22;15077;49.704;9.908;2022-11-04T04:48:26;14.30;67.30
27671;DHT22;15077;49.704;9.908;2022-11-04T04:50:51;14.30;67.10
27671;DHT22;15077;49.704;9.908;2022-11-04T04:53:21;14.20;67.20
27671;DHT22;15077;49.704;9.908;2022-11-04T04:55:47;14.20;67.10
27671;DHT22;15077;49.704;9.908;2022-11-04T04:58:13;14.20;67.20
27671;DHT22;15077;49.704;9.908;2022-11-04T05:00:38;14.20;67.10
27671;DHT22;15077;49.704;9.908;2022-11-04T05:03:04;14.20;67.10
27671;DHT22;15077;49.704;9.908;2022-11-04T05:05:30;14.20;67.20
27671;DHT22;15077;49.704;9.908;2022-11-04T05:08:02;14.20;67.00
27671;DHT22;15077;49.704;9.908;2022-11-04T05:10:29;14.20;67.10
27671;DHT22;15077;49.704;9.908;2022-11-04T05:12:55;14.20;67.10
27671;DHT22;15077;49.704;9.908;2022-11-04T05:15:39;14.20;67.70
27671;DHT22;15077;49.704;9.908;2022-11-04T05:18:04;14.20;67.00
27671;DHT22;15077;49.704;9.908;2022-11-04T05:20:30;14.20;67.00
27671;DHT22;15077;49.704;9.908;2022-11-04T05:22:58;14.20;67.00
27671;DHT22;15077;49.704;9.908;2022-11-04T05:25:24;14.10;66.90
27671;DHT22;15077;49.704;9.908;2022-11-04T05:27:50;14.20;67.00
27671;DHT22;15077;49.704;9.908;2022-11-04T05:30:15;14.10;66.90
27671;DHT22;15077;49.704;9.908;2022-11-04T05:32:41;14.10;67.00
27671;DHT22;15077;49.704;9.908;2022-11-04T05:35:07;14.10;67.00
27671;DHT22;15077;49.704;9.908;2022-11-04T05:37:33;14.10;67.00
27671;DHT22;15077;49.704;9.908;2022-11-04T05:39:58;14.10;67.10
27671;DHT22;15077;49.704;9.908;2022-11-04T05:42:24;14.10;67.10
27671;DHT22;15077;49.704;9.908;2022-11-04T05:44:49;14.10;67.10
27671;DHT22;15077;49.704;9.908;2022-11-04T05:47:15;14.00;67.00
27671;DHT22;15077;49.704;9.908;2022-11-04T05:49:41;14.00;67.00
27671;DHT22;15077;49.704;9.908;2022-11-04T05:52:06;14.00;67.00
27671;DHT22;15077;49.704;9.908;2022-11-04T05:54:32;14.00;66.90
27671;DHT22;15077;49.704;9.908;2022-11-04T05:56:58;14.10;67.00
27671;DHT22;15077;49.704;9.908;2022-11-04T05:59:23;14.00;66.90
27671;DHT22;15077;49.704;9.908;2022-11-04T06:01:49;14.00;66.90
27671;DHT22;15077;49.704;9.908;2022-11-04T06:04:16;14.00;66.90
27671;DHT22;15077;49.704;9.908;2022-11-04T06:06:43;14.00;66.80
27671;DHT22;15077;49.704;9.908;2022-11-04T06:09:09;14.00;66.80
27671;DHT22;15077;49.704;9.908;2022-11-04T06:11:35;14.00;66.70
27671;DHT22;15077;49.704;9.908;2022-11-04T06:14:01;14.00;66.70
27671;DHT22;15077;49.704;9.908;2022-11-04T06:16:27;14.00;66.70
27671;DHT22;15077;49.704;9.908;2022-11-04T06:18:53;14.00;66.70
27671;DHT22;15077;49.704;9.908;2022-11-04T06:23:49;14.00;66.70
27671;DHT22;15077;49.704;9.908;2022-11-04T06:26:16;14.00;66.60
27671;DHT22;15077;49.704;9.908;2022-11-04T06:28:41;14.00;66.60
27671;DHT22;15077;49.704;9.908;2022-11-04T06:31:08;14.00;66.50
27671;DHT22;15077;49.704;9.908;2022-11-04T06:33:36;14.00;66.60
27671;DHT22;15077;49.704;9.908;2022-11-04T06:36:02;13.90;66.50
27671;DHT22;15077;49.704;9.908;2022-11-04T06:38:30;13.90;66.50
27671;DHT22;15077;49.704;9.908;2022-11-04T06:40:57;13.90;66.50
27671;DHT22;15077;49.704;9.908;2022-11-04T06:43:23;13.90;66.50
27671;DHT22;15077;49.704;9.908;2022-11-04T06:45:55;13.80;66.40
27671;DHT22;15077;49.704;9.908;2022-11-04T06:48:22;13.80;66.40
27671;DHT22;15077;49.704;9.908;2022-11-04T06:50:48;13.80;66.40
27671;DHT22;15077;49.704;9.908;2022-11-04T06:53:14;13.80;66.40
27671;DHT22;15077;49.704;9.908;2022-11-04T06:55:40;13.80;66.50
27671;DHT22;15077;49.704;9.908;2022-11-04T06:58:05;13.80;66.40
27671;DHT22;15077;49.704;9.908;2022-11-04T07:00:31;13.80;66.40
27671;DHT22;15077;49.704;9.908;2022-11-04T07:02:57;13.80;66.40
27671;DHT22;15077;49.704;9.908;2022-11-04T07:05:22;13.70;66.40
27671;DHT22;15077;49.704;9.908;2022-11-04T07:07:48;13.70;66.40
27671;DHT22;15077;49.704;9.908;2022-11-04T07:10:14;13.70;66.40
27671;DHT22;15077;49.704;9.908;2022-11-04T07:12:39;13.70;66.40
27671;DHT22;15077;49.704;9.908;2022-11-04T07:15:05;13.70;66.40
27671;DHT22;15077;49.704;9.908;2022-11-04T07:17:31;13.60;66.40
27671;DHT22;15077;49.704;9.908;2022-11-04T07:19:57;13.60;66.40
27671;DHT22;15077;49.704;9.908;2022-11-04T07:22:23;13.60;66.40
27671;DHT22;15077;49.704;9.908;2022-11-04T07:24:48;13.60;66.40
27671;DHT22;15077;49.704;9.908;2022-11-04T07:27:14;13.60;66.40
27671;DHT22;15077;49.704;9.908;2022-11-04T07:29:40;13.60;66.50
27671;DHT22;15077;49.704;9.908;2022-11-04T07:32:05;13.60;66.50
27671;DHT22;15077;49.704;9.908;2022-11-04T07:34:31;13.60;66.40
27671;DHT22;15077;49.704;9.908;2022-11-04T07:36:56;13.60;66.50
27671;DHT22;15077;49.704;9.908;2022-11-04T07:39:22;13.60;66.50
27671;DHT22;15077;49.704;9.908;2022-11-04T07:41:48;13.60;66.50
27671;DHT22;15077;49.704;9.908;2022-11-04T07:44:13;13.60;66.50
27671;DHT22;15077;49.704;9.908;2022-11-04T07:46:39;13.60;66.50
27671;DHT22;15077;49.704;9.908;2022-11-04T07:49:05;13.60;66.50
27671;DHT22;15077;49.704;9.908;2022-11-04T07:51:32;13.60;66.50
27671;DHT22;15077;49.704;9.908;2022-11-04T07:53:58;13.60;66.50
27671;DHT22;15077;49.704;9.908;2022-11-04T07:56:25;13.60;66.60
27671;DHT22;15077;49.704;9.908;2022-11-04T07:58:51;13.70;66.60
27671;DHT22;15077;49.704;9.908;2022-11-04T08:01:18;13.70;66.60
27671;DHT22;15077;49.704;9.908;2022-11-04T08:03:45;13.70;66.50
27671;DHT22;15077;49.704;9.908;2022-11-04T08:06:12;13.70;66.50
27671;DHT22;15077;49.704;9.908;2022-11-04T08:08:38;13.70;66.50
27671;DHT22;15077;49.704;9.908;2022-11-04T08:11:07;13.70;66.50
27671;DHT22;15077;49.704;9.908;2022-11-04T08:13:35;13.70;66.50
27671;DHT22;15077;49.704;9.908;2022-11-04T08:16:02;13.70;66.40
27671;DHT22;15077;49.704;9.908;2022-11-04T08:18:30;13.70;66.50
27671;DHT22;15077;49.704;9.908;2022-11-04T08:20:57;13.70;66.50
27671;DHT22;15077;49.704;9.908;2022-11-04T08:23:23;13.70;66.60
27671;DHT22;15077;49.704;9.908;2022-11-04T08:25:49;13.70;66.60
27671;DHT22;15077;49.704;9.908;2022-11-04T08:28:14;13.70;66.60
27671;DHT22;15077;49.704;9.908;2022-11-04T08:30:59;13.70;66.60
27671;DHT22;15077;49.704;9.908;2022-11-04T08:33:32;13.70;66.70
27671;DHT22;15077;49.704;9.908;2022-11-04T08:35:59;13.70;66.70
27671;DHT22;15077;49.704;9.908;2022-11-04T08:38:27;13.70;66.70
27671;DHT22;15077;49.704;9.908;2022-11-04T08:40:59;13.70;66.70
27671;DHT22;15077;49.704;9.908;2022-11-04T08:43:27;13.70;67.30
27671;DHT22;15077;49.704;9.908;2022-11-04T08:45:53;13.70;66.70
27671;DHT22;15077;49.704;9.908;2022-11-04T08:48:19;13.70;66.70
27671;DHT22;15077;49.704;9.908;2022-11-04T08:50:52;13.70;66.60
27671;DHT22;15077;49.704;9.908;2022-11-04T08:53:20;13.70;66.70
27671;DHT22;15077;49.704;9.908;2022-11-04T08:55:46;13.70;66.70
27671;DHT22;15077;49.704;9.908;2022-11-04T08:58:13;13.70;66.70
27671;DHT22;15077;49.704;9.908;2022-11-04T09:00:38;13.70;66.70
27671;DHT22;15077;49.704;9.908;2022-11-04T09:03:04;13.70;66.80
27671;DHT22;15077;49.704;9.908;2022-11-04T09:05:30;13.70;66.80
27671;DHT22;15077;49.704;9.908;2022-11-04T09:07:57;13.70;66.80
27671;DHT22;15077;49.704;9.908;2022-11-04T09:10:25;13.70;66.80
27671;DHT22;15077;49.704;9.908;2022-11-04T09:12:51;13.70;66.90
27671;DHT22;15077;49.704;9.908;2022-11-04T09:15:18;13.70;67.00
27671;DHT22;15077;49.704;9.908;2022-11-04T09:17:43;13.70;67.00
27671;DHT22;15077;49.704;9.908;2022-11-04T09:20:09;13.70;67.00
27671;DHT22;15077;49.704;9.908;2022-11-04T09:22:36;13.70;67.70
27671;DHT22;15077;49.704;9.908;2022-11-04T09:25:02;13.70;67.10
27671;DHT22;15077;49.704;9.908;2022-11-04T09:27:28;13.80;67.10
27671;DHT22;15077;49.704;9.908;2022-11-04T09:29:54;13.80;67.10
27671;DHT22;15077;49.704;9.908;2022-11-04T09:32:19;13.80;67.10
27671;DHT22;15077;49.704;9.908;2022-11-04T09:34:45;13.80;67.10
27671;DHT22;15077;49.704;9.908;2022-11-04T09:37:11;13.80;67.00
27671;DHT22;15077;49.704;9.908;2022-11-04T09:39:37;13.80;67.10
27671;DHT22;15077;49.704;9.908;2022-11-04T09:44:48;13.80;67.20
27671;DHT22;15077;49.704;9.908;2022-11-04T09:47:15;13.90;67.20
27671;DHT22;15077;49.704;9.908;2022-11-04T09:49:43;13.90;67.20
27671;DHT22;15077;49.704;9.908;2022-11-04T09:52:15;13.90;67.10
27671;DHT22;15077;49.704;9.908;2022-11-04T09:54:51;14.00;67.20
27671;DHT22;15077;49.704;9.908;2022-11-04T09:57:19;14.00;67.10
27671;DHT22;15077;49.704;9.908;2022-11-04T09:59:45;14.00;67.10
27671;DHT22;15077;49.704;9.908;2022-11-04T10:21:28;14.30;67.00
27671;DHT22;15077;49.704;9.908;2022-11-04T10:29:21;14.40;66.80
27671;DHT22;15077;49.704;9.908;2022-11-04T10:31:54;14.40;66.90
27671;DHT22;15077;49.704;9.908;2022-11-04T10:34:25;14.40;67.00
27671;DHT22;15077;49.704;9.908;2022-11-04T10:36:57;14.40;66.80
27671;DHT22;15077;49.704;9.908;2022-11-04T10:39:27;14.50;66.80
27671;DHT22;15077;49.704;9.908;2022-11-04T10:41:54;14.50;66.80
27671;DHT22;15077;49.704;9.908;2022-11-04T10:52:38;14.70;66.50
27671;DHT22;15077;49.704;9.908;2022-11-04T10:55:13;14.70;66.40
27671;DHT22;15077;49.704;9.908;2022-11-04T10:57:53;14.70;66.30
27671;DHT22;15077;49.704;9.908;2022-11-04T11:00:31;14.70;66.10
27671;DHT22;15077;49.704;9.908;2022-11-04T11:02:58;14.70;66.10
27671;DHT22;15077;49.704;9.908;2022-11-04T11:05:24;14.70;66.10
27671;DHT22;15077;49.704;9.908;2022-11-04T11:07:54;14.70;66.80
27671;DHT22;15077;49.704;9.908;2022-11-04T11:10:31;14.70;66.30
27671;DHT22;15077;49.704;9.908;2022-11-04T11:13:00;14.70;66.40
27671;DHT22;15077;49.704;9.908;2022-11-04T11:15:32;14.70;66.50
27671;DHT22;15077;49.704;9.908;2022-11-04T11:18:10;14.80;66.50
27671;DHT22;15077;49.704;9.908;2022-11-04T11:20:39;14.80;66.40
27671;DHT22;15077;49.704;9.908;2022-11-04T11:23:08;14.80;66.30
27671;DHT22;15077;49.704;9.908;2022-11-04T11:25:59;14.80;66.50
27671;DHT22;15077;49.704;9.908;2022-11-04T11:28:25;14.90;66.50
27671;DHT22;15077;49.704;9.908;2022-11-04T11:33:33;15.00;66.60
27671;DHT22;15077;49.704;9.908;2022-11-04T11:46:49;15.40;66.10
27671;DHT22;15077;49.704;9.908;2022-11-04T11:49:29;15.50;66.20
27671;DHT22;15077;49.704;9.908;2022-11-04T11:54:42;15.80;65.80
27671;DHT22;15077;49.704;9.908;2022-11-04T11:57:21;15.90;65.50
27671;DHT22;15077;49.704;9.908;2022-11-04T12:00:09;16.00;65.60
27671;DHT22;15077;49.704;9.908;2022-11-04T12:02:41;16.10;65.30
27671;DHT22;15077;49.704;9.908;2022-11-04T12:05:14;16.10;65.10
27671;DHT22;15077;49.704;9.908;2022-11-04T12:07:54;16.10;65.00
27671;DHT22;15077;49.704;9.908;2022-11-04T12:15:54;16.10;64.50
27671;DHT22;15077;49.704;9.908;2022-11-04T12:18:39;16.10;64.60
27671;DHT22;15077;49.704;9.908;2022-11-04T12:21:15;16.10;64.40
27671;DHT22;15077;49.704;9.908;2022-11-04T12:23:56;16.10;64.50
27671;DHT22;15077;49.704;9.908;2022-11-04T12:32:13;16.20;64.50
27671;DHT22;15077;49.704;9.908;2022-11-04T12:37:34;16.20;63.80
27671;DHT22;15077;49.704;9.908;2022-11-04T12:42:38;16.10;64.00
27671;DHT22;15077;49.704;9.908;2022-11-04T12:48:29;16.20;64.00
27671;DHT22;15077;49.704;9.908;2022-11-04T12:56:16;16.10;64.00
27671;DHT22;15077;49.704;9.908;2022-11-04T13:01:18;16.20;64.00
27671;DHT22;15077;49.704;9.908;2022-11-04T13:03:51;16.20;63.80
27671;DHT22;15077;49.704;9.908;2022-11-04T13:06:26;16.20;63.70
27671;DHT22;15077;49.704;9.908;2022-11-04T13:08:59;16.20;63.80
27671;DHT22;15077;49.704;9.908;2022-11-04T13:16:31;16.20;63.90
27671;DHT22;15077;49.704;9.908;2022-11-04T13:19:01;16.20;63.80
27671;DHT22;15077;49.704;9.908;2022-11-04T13:21:29;16.20;63.50
27671;DHT22;15077;49.704;9.908;2022-11-04T13:26:30;16.20;63.80
27671;DHT22;15077;49.704;9.908;2022-11-04T13:28:58;16.20;63.50
27671;DHT22;15077;49.704;9.908;2022-11-04T13:34:39;16.20;63.10
27671;DHT22;15077;49.704;9.908;2022-11-04T13:37:24;16.10;63.20
27671;DHT22;15077;49.704;9.908;2022-11-04T13:45:11;16.10;62.90
27671;DHT22;15077;49.704;9.908;2022-11-04T13:47:46;16.10;63.80
27671;DHT22;15077;49.704;9.908;2022-11-04T13:52:53;16.10;63.40
27671;DHT22;15077;49.704;9.908;2022-11-04T13:55:19;16.10;63.20
27671;DHT22;15077;49.704;9.908;2022-11-04T13:57:58;16.10;63.20
27671;DHT22;15077;49.704;9.908;2022-11-04T14:00:26;16.00;63.30
27671;DHT22;15077;49.704;9.908;2022-11-04T14:02:54;16.00;63.40
27671;DHT22;15077;49.704;9.908;2022-11-04T14:16:02;16.00;63.30
27671;DHT22;15077;49.704;9.908;2022-11-04T14:18:37;16.00;63.50
27671;DHT22;15077;49.704;9.908;2022-11-04T14:23:41;15.90;63.60
27671;DHT22;15077;49.704;9.908;2022-11-04T14:26:10;15.90;63.40
27671;DHT22;15077;49.704;9.908;2022-11-04T14:28:38;15.90;63.30
27671;DHT22;15077;49.704;9.908;2022-11-04T14:31:08;15.90;63.20
27671;DHT22;15077;49.704;9.908;2022-11-04T14:33:48;15.80;63.20
27671;DHT22;15077;49.704;9.908;2022-11-04T14:38:55;15.80;63.60
27671;DHT22;15077;49.704;9.908;2022-11-04T14:43:58;15.80;63.80
27671;DHT22;15077;49.704;9.908;2022-11-04T14:46:30;15.80;63.90
27671;DHT22;15077;49.704;9.908;2022-11-04T14:49:04;15.80;63.80
27671;DHT22;15077;49.704;9.908;2022-11-04T14:51:31;15.70;63.80
27671;DHT22;15077;49.704;9.908;2022-11-04T14:54:05;15.70;63.80
27671;DHT22;15077;49.704;9.908;2022-11-04T14:56:37;15.70;63.90
27671;DHT22;15077;49.704;9.908;2022-11-04T14:59:03;15.70;64.00
27671;DHT22;15077;49.704;9.908;2022-11-04T15:01:34;15.60;64.00
27671;DHT22;15077;49.704;9.908;2022-11-04T15:04:04;15.60;64.10
27671;DHT22;15077;49.704;9.908;2022-11-04T15:06:33;15.60;64.20
27671;DHT22;15077;49.704;9.908;2022-11-04T15:08:59;15.60;64.30
27671;DHT22;15077;49.704;9.908;2022-11-04T15:11:26;15.60;64.30
27671;DHT22;15077;49.704;9.908;2022-11-04T15:14:13;15.60;64.40
27671;DHT22;15077;49.704;9.908;2022-11-04T15:16:49;15.60;64.40
27671;DHT22;15077;49.704;9.908;2022-11-04T15:19:22;15.60;64.50
27671;DHT22;15077;49.704;9.908;2022-11-04T15:21:54;15.60;64.40
27671;DHT22;15077;49.704;9.908;2022-11-04T15:24:20;15.60;64.50
27671;DHT22;15077;49.704;9.908;2022-11-04T15:26:50;15.60;64.40
27671;DHT22;15077;49.704;9.908;2022-11-04T15:29:17;15.60;64.60
27671;DHT22;15077;49.704;9.908;2022-11-04T15:34:22;15.60;64.50
27671;DHT22;15077;49.704;9.908;2022-11-04T15:36:49;15.60;64.50
27671;DHT22;15077;49.704;9.908;2022-11-04T15:39:18;15.60;64.50
27671;DHT22;15077;49.704;9.908;2022-11-04T15:41:46;15.60;64.50
27671;DHT22;15077;49.704;9.908;2022-11-04T15:44:33;15.60;64.60
27671;DHT22;15077;49.704;9.908;2022-11-04T15:47:02;15.60;64.50
27671;DHT22;15077;49.704;9.908;2022-11-04T15:49:43;15.50;64.50
27671;DHT22;15077;49.704;9.908;2022-11-04T15:52:11;15.50;64.50
27671;DHT22;15077;49.704;9.908;2022-11-04T15:54:42;15.50;64.40
27671;DHT22;15077;49.704;9.908;2022-11-04T15:57:13;15.50;64.40
27671;DHT22;15077;49.704;9.908;2022-11-04T15:59:58;15.50;64.40
27671;DHT22;15077;49.704;9.908;2022-11-04T16:02:34;15.40;64.40
27671;DHT22;15077;49.704;9.908;2022-11-04T16:07:39;15.40;64.50
27671;DHT22;15077;49.704;9.908;2022-11-04T16:13:03;15.30;64.50
27671;DHT22;15077;49.704;9.908;2022-11-04T16:18:25;15.30;64.60
27671;DHT22;15077;49.704;9.908;2022-11-04T16:21:00;15.20;64.50
27671;DHT22;15077;49.704;9.908;2022-11-04T16:23:29;15.20;64.60
27671;DHT22;15077;49.704;9.908;2022-11-04T16:26:00;15.20;64.60
27671;DHT22;15077;49.704;9.908;2022-11-04T16:28:36;15.20;64.60
27671;DHT22;15077;49.704;9.908;2022-11-04T16:31:07;15.20;64.60
27671;DHT22;15077;49.704;9.908;2022-11-04T16:33:48;15.20;64.60
27671;DHT22;15077;49.704;9.908;2022-11-04T16:36:14;15.10;64.60
27671;DHT22;15077;49.704;9.908;2022-11-04T16:38:54;15.10;64.60
27671;DHT22;15077;49.704;9.908;2022-11-04T16:41:22;15.10;64.60
27671;DHT22;15077;49.704;9.908;2022-11-04T16:43:50;15.10;64.70
27671;DHT22;15077;49.704;9.908;2022-11-04T16:46:16;15.10;64.70
27671;DHT22;15077;49.704;9.908;2022-11-04T16:48:43;15.10;65.00
27671;DHT22;15077;49.704;9.908;2022-11-04T16:51:19;15.00;64.60
27671;DHT22;15077;49.704;9.908;2022-11-04T16:53:46;15.00;64.60
27671;DHT22;15077;49.704;9.908;2022-11-04T16:56:14;15.00;64.60
27671;DHT22;15077;49.704;9.908;2022-11-04T16:58:41;15.00;64.60
27671;DHT22;15077;49.704;9.908;2022-11-04T17:01:07;14.90;64.50
27671;DHT22;15077;49.704;9.908;2022-11-04T17:03:37;14.90;64.50
27671;DHT22;15077;49.704;9.908;2022-11-04T17:06:03;14.90;64.50
27671;DHT22;15077;49.704;9.908;2022-11-04T17:08:29;14.80;64.40
27671;DHT22;15077;49.704;9.908;2022-11-04T17:10:54;14.80;64.40
27671;DHT22;15077;49.704;9.908;2022-11-04T17:13:20;14.70;64.30
27671;DHT22;15077;49.704;9.908;2022-11-04T17:15:45;14.70;64.40
27671;DHT22;15077;49.704;9.908;2022-11-04T17:18:12;14.60;64.30
27671;DHT22;15077;49.704;9.908;2022-11-04T17:20:42;14.60;64.30
27671;DHT22;15077;49.704;9.908;2022-11-04T17:23:13;14.60;64.40
27671;DHT22;15077;49.704;9.908;2022-11-04T17:25:39;14.50;64.40
27671;DHT22;15077;49.704;9.908;2022-11-04T17:28:05;14.50;64.50
27671;DHT22;15077;49.704;9.908;2022-11-04T17:30:31;14.40;64.60
27671;DHT22;15077;49.704;9.908;2022-11-04T17:32:57;14.40;64.70
27671;DHT22;15077;49.704;9.908;2022-11-04T17:35:22;14.40;64.70
27671;DHT22;15077;49.704;9.908;2022-11-04T17:37:51;14.40;64.80
27671;DHT22;15077;49.704;9.908;2022-11-04T17:40:18;14.30;64.80
27671;DHT22;15077;49.704;9.908;2022-11-04T17:42:45;14.30;64.80
27671;DHT22;15077;49.704;9.908;2022-11-04T17:45:30;14.30;65.50
27671;DHT22;15077;49.704;9.908;2022-11-04T17:47:56;14.30;65.00
27671;DHT22;15077;49.704;9.908;2022-11-04T17:50:22;14.30;65.00
27671;DHT22;15077;49.704;9.908;2022-11-04T17:52:47;14.30;65.00
27671;DHT22;15077;49.704;9.908;2022-11-04T17:55:13;14.30;65.00
27671;DHT22;15077;49.704;9.908;2022-11-04T17:57:39;14.30;65.10
27671;DHT22;15077;49.704;9.908;2022-11-04T18:00:05;14.30;65.10
27671;DHT22;15077;49.704;9.908;2022-11-04T18:02:32;14.20;65.10
27671;DHT22;15077;49.704;9.908;2022-11-04T18:04:58;14.30;65.20
27671;DHT22;15077;49.704;9.908;2022-11-04T18:07:26;14.20;65.10
27671;DHT22;15077;49.704;9.908;2022-11-04T18:09:52;14.20;65.10
27671;DHT22;15077;49.704;9.908;2022-11-04T18:12:18;14.20;65.10
27671;DHT22;15077;49.704;9.908;2022-11-04T18:15:03;14.20;65.20
27671;DHT22;15077;49.704;9.908;2022-11-04T18:17:38;14.30;65.20
27671;DHT22;15077;49.704;9.908;2022-11-04T18:20:08;14.30;65.30
27671;DHT22;15077;49.704;9.908;2022-11-04T18:22:38;14.30;65.30
27671;DHT22;15077;49.704;9.908;2022-11-04T18:25:04;14.30;65.30
27671;DHT22;15077;49.704;9.908;2022-11-04T18:27:30;14.30;65.30
27671;DHT22;15077;49.704;9.908;2022-11-04T18:29:56;14.30;65.30
27671;DHT22;15077;49.704;9.908;2022-11-04T18:32:22;14.30;65.30